Time;durP1;ratioP1;P1;durP2;ratioP2;P2;SDS_P1;SDS_P2;PMS_P1;PMS_P2;Temp;Humidity;BMP_temperature;BMP_pressure;BME280_temperature;BME280_humidity;BME280_pressure;Samples;Min_cycle;Max_cycle;Signal;HPM_P1;HPM_P2
2021/04/03 00:01:14;;;;;;;9.27;3.17;;;;;;;9.85;51.51;102157.53;5039400;28;20052;-91
2021/04/03 00:03:40;;;;;;;10.52;3.05;;;;;;;9.52;52.38;102160.44;5041065;28;20029;-91
2021/04/03 00:06:05;;;;;;;4.65;2.72;;;;;;;9.60;52.43;102156.69;5035488;28;20026;-91
2021/04/03 00:08:31;;;;;;;7.40;2.88;;;;;;;9.57;52.86;102156.78;5034071;28;20083;-92
2021/04/03 00:11:00;;;;;;;9.23;4.10;;;;;;;8.93;53.64;102142.38;5037835;28;20120;-92
2021/04/03 00:13:29;;;;;;;8.48;3.35;;;;;;;9.32;53.29;102162.88;5036233;28;20044;-92
2021/04/03 00:15:54;;;;;;;6.63;3.35;;;;;;;9.47;52.81;102162.34;5038204;28;20033;-90
2021/04/03 00:18:20;;;;;;;4.75;2.90;;;;;;;9.42;52.30;102153.81;5046928;28;20093;-90
2021/04/03 00:20:47;;;;;;;7.75;3.03;;;;;;;9.47;52.89;102161.50;5044664;28;20068;-91
2021/04/03 00:23:18;;;;;;;7.05;3.25;;;;;;;9.22;53.56;102156.25;5036757;28;20475;-92
2021/04/03 00:25:44;;;;;;;7.30;2.92;;;;;;;8.95;54.23;102152.81;5034702;28;20520;-92
2021/04/03 00:28:09;;;;;;;9.50;3.33;;;;;;;8.96;54.46;102165.84;5033698;28;20025;-91
2021/04/03 00:30:35;;;;;;;9.00;2.80;;;;;;;8.95;53.63;102163.31;5034695;28;20052;-92
2021/04/03 00:33:04;;;;;;;6.32;3.10;;;;;;;8.91;53.84;102171.25;5033369;28;20051;-91
2021/04/03 00:35:32;;;;;;;8.27;3.65;;;;;;;8.82;53.95;102157.59;5034480;28;20037;-91
2021/04/03 00:37:58;;;;;;;6.63;3.00;;;;;;;9.01;54.24;102169.19;5034583;28;20021;-92
2021/04/03 00:40:34;;;;;;;6.15;3.17;;;;;;;9.07;54.10;102153.25;5034443;28;20391;-91
2021/04/03 00:43:03;;;;;;;8.25;3.17;;;;;;;9.04;54.13;102157.72;5032513;28;20029;-91
2021/04/03 00:45:28;;;;;;;10.68;3.38;;;;;;;8.89;54.34;102161.72;5033803;28;20025;-92
2021/04/03 00:47:53;;;;;;;7.88;2.95;;;;;;;8.82;54.27;102141.88;5034111;28;20033;-91
2021/04/03 00:50:24;;;;;;;7.82;3.45;;;;;;;8.77;55.07;102149.88;5033664;28;20018;-92
2021/04/03 00:52:50;;;;;;;5.95;2.70;;;;;;;8.65;55.24;102152.88;5033434;28;20033;-92
2021/04/03 00:55:15;;;;;;;5.53;2.97;;;;;;;8.64;55.85;102153.81;5032524;28;20156;-91
2021/04/03 00:57:41;;;;;;;12.32;3.70;;;;;;;8.76;55.07;102152.56;5032155;28;20480;-91
2021/04/03 01:00:08;;;;;;;8.73;3.58;;;;;;;8.88;54.73;102149.53;5032522;28;20024;-92
2021/04/03 01:02:35;;;;;;;5.43;3.65;;;;;;;8.69;55.13;102142.28;5033269;28;20026;-91
2021/04/03 01:05:03;;;;;;;8.30;4.03;;;;;;;8.42;55.58;102137.91;5033235;28;20028;-92
2021/04/03 01:07:29;;;;;;;5.78;3.20;;;;;;;8.47;56.09;102146.47;5033286;28;20037;-92
2021/04/03 01:09:54;;;;;;;7.13;3.20;;;;;;;8.50;55.45;102135.91;5032791;28;20044;-91
2021/04/03 01:12:35;;;;;;;5.95;3.10;;;;;;;8.73;55.24;102138.66;5033327;28;20031;-91
2021/04/03 01:15:21;;;;;;;6.22;3.45;;;;;;;8.60;55.25;102141.72;5034587;28;20151;-92
2021/04/03 01:18:05;;;;;;;7.68;4.13;;;;;;;8.58;55.52;102141.75;5047441;28;20033;-91
2021/04/03 01:20:48;;;;;;;5.43;3.08;;;;;;;8.76;55.51;102153.41;5048154;28;20085;-91
2021/04/03 01:23:32;;;;;;;5.32;3.20;;;;;;;8.76;55.62;102157.78;5048069;28;20021;-92
2021/04/03 01:26:22;;;;;;;7.72;3.58;;;;;;;8.58;55.75;102146.16;5033125;28;20029;-92
2021/04/03 01:29:25;;;;;;;6.35;3.97;;;;;;;8.55;55.80;102160.19;5032959;28;20025;-92
2021/04/03 01:31:52;;;;;;;6.75;4.13;;;;;;;8.59;55.50;102140.88;5033054;28;20104;-92
2021/04/03 01:34:25;;;;;;;10.43;3.40;;;;;;;8.62;55.59;102150.38;5031746;28;20021;-93
2021/04/03 01:36:52;;;;;;;15.50;3.72;;;;;;;8.51;55.74;102143.72;5032850;28;20036;-92
2021/04/03 01:39:23;;;;;;;12.88;4.30;;;;;;;8.57;56.05;102141.81;5031648;28;20028;-91
2021/04/03 01:41:53;;;;;;;9.35;4.10;;;;;;;8.60;55.87;102147.81;5032883;28;20060;-92
2021/04/03 01:44:22;;;;;;;7.97;3.67;;;;;;;8.69;55.89;102146.66;5033027;28;20088;-91
2021/04/03 01:46:50;;;;;;;9.98;3.90;;;;;;;8.70;56.03;102146.59;5031782;28;20368;-92
2021/04/03 01:49:20;;;;;;;8.52;4.20;;;;;;;8.61;56.51;102148.66;5032812;28;20092;-92
2021/04/03 01:51:47;;;;;;;9.07;3.83;;;;;;;8.46;57.30;102152.63;5031485;28;20113;-91
2021/04/03 01:54:14;;;;;;;8.73;3.78;;;;;;;8.31;56.92;102148.66;5032610;28;20061;-91
2021/04/03 01:56:41;;;;;;;7.57;3.42;;;;;;;8.25;56.82;102143.63;5032583;28;20381;-91
2021/04/03 01:59:08;;;;;;;8.90;4.07;;;;;;;8.13;57.80;102137.84;5032526;28;20087;-92
2021/04/03 02:01:44;;;;;;;7.55;3.78;;;;;;;8.27;57.60;102152.28;5032530;28;20499;-92
2021/04/03 02:04:12;;;;;;;6.28;3.50;;;;;;;8.20;57.80;102154.25;5032207;28;20028;-92
2021/04/03 02:06:40;;;;;;;9.02;4.30;;;;;;;8.22;57.81;102134.13;5036742;28;20030;-92
2021/04/03 02:09:11;;;;;;;7.80;3.70;;;;;;;8.31;58.11;102146.94;5036936;28;20126;-92
2021/04/03 02:11:39;;;;;;;9.50;4.38;;;;;;;8.28;58.07;102159.25;5035879;28;20039;-92
2021/04/03 02:14:05;;;;;;;6.45;3.35;;;;;;;8.20;58.32;102151.63;5039502;28;20025;-91
2021/04/03 02:16:33;;;;;;;8.70;3.55;;;;;;;8.06;58.84;102135.50;5037950;28;20026;-93
2021/04/03 02:19:04;;;;;;;9.15;3.72;;;;;;;8.19;58.68;102152.50;5038564;28;20112;-92
2021/04/03 02:21:29;;;;;;;9.10;4.03;;;;;;;8.09;58.48;102161.53;5039127;28;20028;-92
2021/04/03 02:23:56;;;;;;;8.32;4.30;;;;;;;8.03;58.75;102153.88;5036775;28;20025;-91
2021/04/03 02:26:21;;;;;;;11.52;5.13;;;;;;;7.94;59.27;102137.56;5035806;28;20022;-91
2021/04/03 02:28:49;;;;;;;8.45;3.85;;;;;;;8.17;59.49;102146.47;5036526;28;20021;-92
2021/04/03 02:31:15;;;;;;;16.45;4.93;;;;;;;8.22;58.34;102168.13;5036133;28;20026;-92
2021/04/03 02:33:40;;;;;;;10.13;3.97;;;;;;;8.29;58.99;102168.81;5035642;28;20510;-92
2021/04/03 02:36:06;;;;;;;14.48;5.03;;;;;;;8.39;58.78;102153.66;5034955;28;20030;-92
2021/04/03 02:38:31;;;;;;;9.18;4.43;;;;;;;8.51;58.60;102148.97;5034965;28;20440;-92
2021/04/03 02:40:56;;;;;;;8.88;4.50;;;;;;;8.36;58.63;102154.63;5034919;28;20022;-91
2021/04/03 02:43:27;;;;;;;11.73;4.55;;;;;;;8.51;59.10;102163.78;5035955;28;20476;-92
2021/04/03 02:46:13;;;;;;;13.60;5.00;;;;;;;8.19;59.74;102141.19;5034833;28;20082;-91
2021/04/03 02:48:43;;;;;;;10.00;4.63;;;;;;;8.01;60.69;102147.84;5036168;28;20025;-91
2021/04/03 02:51:10;;;;;;;12.00;5.60;;;;;;;7.90;61.35;102141.16;5034929;28;20024;-91
2021/04/03 02:53:37;;;;;;;9.63;4.57;;;;;;;8.13;60.81;102158.78;5034945;28;20026;-91
2021/04/03 02:56:06;;;;;;;11.02;5.00;;;;;;;8.07;60.76;102137.19;5036386;28;20028;-92
2021/04/03 02:58:35;;;;;;;18.27;5.25;;;;;;;7.79;61.83;102142.38;5038600;28;20040;-92
2021/04/03 03:01:02;;;;;;;14.30;5.53;;;;;;;7.64;62.62;102134.06;5051606;28;20026;-92
2021/04/03 03:03:32;;;;;;;15.52;5.40;;;;;;;7.51;63.07;102144.00;5055379;28;20026;-92
2021/04/03 03:05:59;;;;;;;14.48;5.32;;;;;;;7.66;62.56;102147.06;5041721;28;20025;-92
2021/04/03 03:08:29;;;;;;;15.43;5.82;;;;;;;7.64;62.58;102138.41;5034686;28;20141;-91
2021/04/03 03:10:56;;;;;;;11.07;5.50;;;;;;;7.38;63.37;102115.63;5035215;28;20029;-93
2021/04/03 03:13:22;;;;;;;13.18;5.40;;;;;;;7.32;64.22;102135.78;5035756;28;20472;-93
2021/04/03 03:15:48;;;;;;;14.85;7.03;;;;;;;7.21;64.34;102140.47;5034640;28;20437;-92
2021/04/03 03:18:14;;;;;;;13.13;6.93;;;;;;;7.43;63.07;102132.91;5035503;28;20057;-92
2021/04/03 03:20:40;;;;;;;22.27;6.25;;;;;;;7.51;62.74;102130.06;5034161;28;20068;-93
2021/04/03 03:23:06;;;;;;;10.23;5.38;;;;;;;7.50;62.39;102108.31;5034652;28;20030;-93
2021/04/03 03:25:32;;;;;;;19.40;5.65;;;;;;;7.52;62.02;102131.78;5035622;28;20032;-92
2021/04/03 03:27:58;;;;;;;12.98;5.97;;;;;;;7.56;61.61;102128.19;5034156;28;20018;-92
2021/04/03 03:30:25;;;;;;;18.88;5.78;;;;;;;7.45;62.45;102123.25;5033866;28;20025;-92
2021/04/03 03:32:51;;;;;;;18.30;5.70;;;;;;;7.35;62.68;102119.19;5033867;28;20021;-92
2021/04/03 03:35:17;;;;;;;12.43;5.60;;;;;;;7.51;62.03;102106.56;5033746;28;20033;-92
2021/04/03 03:37:44;;;;;;;9.82;5.10;;;;;;;7.65;61.60;102116.63;5035112;28;20476;-92
2021/04/03 03:40:11;;;;;;;12.60;5.90;;;;;;;7.64;60.97;102107.06;5033801;28;20029;-93
2021/04/03 03:42:37;;;;;;;17.17;5.50;;;;;;;7.84;60.25;102103.84;5035175;28;20040;-92
2021/04/03 03:45:05;;;;;;;14.20;4.95;;;;;;;7.82;60.50;102117.00;5033817;28;20029;-92
2021/04/03 03:47:31;;;;;;;14.02;5.22;;;;;;;7.85;60.35;102116.91;5033807;28;20510;-92
2021/04/03 03:49:56;;;;;;;14.18;5.38;;;;;;;7.86;60.09;102116.00;5034294;28;20026;-93
2021/04/03 03:52:21;;;;;;;13.38;5.07;;;;;;;7.95;59.38;102118.34;5034811;28;20025;-93
2021/04/03 03:54:47;;;;;;;14.82;5.85;;;;;;;8.17;58.44;102117.69;5033735;28;20071;-93
2021/04/03 03:57:12;;;;;;;17.92;5.57;;;;;;;8.28;58.29;102104.28;5033593;28;20028;-92
2021/04/03 03:59:37;;;;;;;11.35;5.90;;;;;;;8.36;57.87;102104.06;5034897;28;20026;-91
2021/04/03 04:02:03;;;;;;;17.95;5.50;;;;;;;8.30;58.35;102115.56;5035187;28;20059;-92
2021/04/03 04:04:29;;;;;;;15.63;5.05;;;;;;;8.18;58.13;102098.47;5033625;28;20491;-91
2021/04/03 04:06:54;;;;;;;10.40;4.95;;;;;;;8.26;57.85;102088.63;5034420;28;20026;-92
2021/04/03 04:09:19;;;;;;;14.13;5.68;;;;;;;8.29;57.82;102098.13;5033522;28;20026;-92
2021/04/03 04:11:45;;;;;;;11.55;5.32;;;;;;;8.23;58.12;102108.78;5033026;28;20392;-93
2021/04/03 04:14:10;;;;;;;15.90;5.20;;;;;;;8.07;58.52;102105.78;5034163;28;20384;-92
2021/04/03 04:16:37;;;;;;;17.58;4.90;;;;;;;7.99;59.08;102113.03;5034648;28;20026;-91
2021/04/03 04:19:02;;;;;;;11.98;4.38;;;;;;;8.07;58.82;102116.25;5033003;28;20029;-91
2021/04/03 04:21:28;;;;;;;19.30;5.00;;;;;;;7.81;59.74;102110.03;5034123;28;20487;-92
2021/04/03 04:23:53;;;;;;;14.40;5.13;;;;;;;7.85;59.48;102106.44;5034087;28;20027;-91
2021/04/03 04:26:19;;;;;;;17.15;4.53;;;;;;;7.90;59.29;102107.16;5034024;28;20021;-92
2021/04/03 04:28:44;;;;;;;24.10;8.68;;;;;;;7.97;59.78;102109.59;5032709;28;20606;-92
2021/04/03 04:31:10;;;;;;;17.23;5.18;;;;;;;8.17;59.38;102122.91;5032984;28;20032;-92
2021/04/03 04:33:35;;;;;;;22.08;4.70;;;;;;;8.34;58.70;102135.50;5034879;28;20032;-92
2021/04/03 04:36:01;;;;;;;14.60;4.68;;;;;;;8.44;58.62;102130.88;5032872;28;20029;-91
2021/04/03 04:38:26;;;;;;;10.65;4.57;;;;;;;8.31;59.08;102130.34;5032567;28;20022;-92
2021/04/03 04:40:52;;;;;;;16.65;5.97;;;;;;;8.46;59.07;102134.28;5032663;28;20084;-91
2021/04/03 04:43:19;;;;;;;15.27;5.35;;;;;;;8.52;58.94;102141.97;5038825;28;20040;-91
2021/04/03 04:45:44;;;;;;;14.38;4.40;;;;;;;8.44;59.12;102134.34;5047349;28;20028;-92
2021/04/03 04:48:09;;;;;;;17.13;5.30;;;;;;;8.44;58.78;102128.25;5047398;28;20022;-90
2021/04/03 04:50:35;;;;;;;14.07;4.75;;;;;;;8.34;59.42;102149.44;5045483;28;20089;-91
2021/04/03 04:53:01;;;;;;;14.68;5.55;;;;;;;8.41;59.51;102146.63;5033644;28;20418;-91
2021/04/03 04:55:27;;;;;;;12.05;4.88;;;;;;;8.49;58.51;102147.28;5033565;28;20084;-92
2021/04/03 04:57:52;;;;;;;14.32;5.35;;;;;;;8.40;59.21;102139.69;5033898;28;20021;-91
2021/04/03 05:00:18;;;;;;;12.35;4.90;;;;;;;8.37;58.15;102140.63;5033419;28;20029;-91
2021/04/03 05:02:43;;;;;;;14.10;5.10;;;;;;;8.14;59.53;102147.44;5032372;28;20443;-91
2021/04/03 05:05:09;;;;;;;12.77;4.90;;;;;;;8.22;59.74;102162.06;5033375;28;20056;-91
2021/04/03 05:07:34;;;;;;;18.00;6.35;;;;;;;7.90;60.73;102150.78;5033118;28;20030;-92
2021/04/03 05:10:00;;;;;;;22.55;5.13;;;;;;;8.09;60.27;102157.16;5032348;28;20033;-92
2021/04/03 05:12:25;;;;;;;12.38;5.53;;;;;;;8.16;59.78;102163.09;5031775;28;20071;-90
2021/04/03 05:14:51;;;;;;;21.08;6.05;;;;;;;8.20;59.56;102149.00;5033127;28;20022;-91
2021/04/03 05:17:16;;;;;;;19.15;7.63;;;;;;;8.13;59.93;102143.09;5032084;28;20403;-91
2021/04/03 05:19:41;;;;;;;16.80;5.85;;;;;;;8.19;60.08;102162.97;5032162;28;20029;-92
2021/04/03 05:22:07;;;;;;;14.23;6.03;;;;;;;8.09;60.39;102161.53;5031730;28;20392;-92
2021/04/03 05:24:32;;;;;;;22.38;6.07;;;;;;;7.80;61.43;102158.03;5032922;28;20382;-91
2021/04/03 05:26:58;;;;;;;26.85;6.88;;;;;;;7.93;61.85;102167.22;5033796;28;20510;-92
2021/04/03 05:29:23;;;;;;;19.35;6.15;;;;;;;7.84;62.17;102166.63;5031901;28;20028;-91
2021/04/03 05:31:49;;;;;;;17.73;6.97;;;;;;;7.87;61.70;102167.41;5032116;28;20443;-92
2021/04/03 05:34:14;;;;;;;25.17;8.02;;;;;;;7.81;63.00;102170.19;5031905;28;20099;-92
2021/04/03 05:36:40;;;;;;;18.58;6.10;;;;;;;7.86;62.89;102167.44;5033372;28;20034;-93
2021/04/03 05:39:05;;;;;;;17.40;6.32;;;;;;;7.83;62.03;102171.00;5031133;28;20017;-92
2021/04/03 05:41:31;;;;;;;22.50;6.18;;;;;;;7.97;61.39;102161.91;5031771;28;20053;-93
2021/04/03 05:43:57;;;;;;;22.30;6.93;;;;;;;7.99;60.80;102165.34;5033529;28;20112;-93
2021/04/03 05:46:24;;;;;;;19.45;7.20;;;;;;;8.05;61.11;102186.94;5036329;28;20025;-93
2021/04/03 05:48:51;;;;;;;16.73;5.88;;;;;;;7.92;61.29;102178.59;5034732;28;20037;-92
2021/04/03 05:51:18;;;;;;;13.68;6.32;;;;;;;8.03;61.36;102187.88;5035895;28;20530;-92
2021/04/03 05:53:44;;;;;;;16.98;7.05;;;;;;;7.96;61.76;102176.75;5039124;28;20534;-91
2021/04/03 05:56:09;;;;;;;16.27;5.78;;;;;;;7.89;61.76;102176.06;5037424;28;20034;-91
2021/04/03 05:58:37;;;;;;;17.83;5.63;;;;;;;7.98;62.21;102184.53;5037462;28;20025;-92
2021/04/03 06:01:04;;;;;;;26.08;7.10;;;;;;;7.98;61.99;102176.69;5035145;28;20014;-92
2021/04/03 06:03:30;;;;;;;26.42;6.28;;;;;;;8.11;61.38;102180.66;5033435;28;20018;-92
2021/04/03 06:05:56;;;;;;;23.15;5.80;;;;;;;8.20;61.51;102190.88;5031809;28;20104;-92
2021/04/03 06:08:21;;;;;;;15.70;5.38;;;;;;;8.20;61.95;102198.72;5031870;28;20025;-93
2021/04/03 06:11:13;;;;;;;14.75;5.65;;;;;;;8.65;60.24;102197.41;5033210;28;20103;-93
2021/04/03 06:13:58;;;;;;;16.08;4.95;;;;;;;8.19;61.45;102204.84;5032863;28;20022;-92
2021/04/03 06:16:32;;;;;;;16.83;4.60;;;;;;;8.47;59.76;102209.28;5031593;28;20037;-92
2021/04/03 06:19:13;;;;;;;26.17;6.38;;;;;;;8.11;58.54;102217.31;5031824;28;20380;-92
2021/04/03 06:21:40;;;;;;;21.98;4.03;;;;;;;8.08;58.55;102222.63;5033184;28;20579;-91
2021/04/03 06:24:33;;;;;;;18.77;5.20;;;;;;;8.61;57.15;102212.38;5032800;28;20025;-91
2021/04/03 06:27:10;;;;;;;15.43;4.38;;;;;;;8.58;57.22;102217.69;5027760;28;20033;-92
2021/04/03 06:29:37;;;;;;;19.30;4.70;;;;;;;8.76;56.02;102223.28;5031718;28;20563;-92
2021/04/03 06:32:04;;;;;;;16.65;4.07;;;;;;;8.70;56.47;102211.22;5031351;28;20145;-93
2021/04/03 06:34:34;;;;;;;19.52;4.97;;;;;;;8.96;56.68;102202.53;5032868;28;20026;-92
2021/04/03 06:37:01;;;;;;;22.15;4.85;;;;;;;8.49;56.21;102202.25;5032648;28;20025;-92
2021/04/03 06:39:28;;;;;;;21.15;3.80;;;;;;;8.43;56.51;102212.91;5031147;28;20021;-93
2021/04/03 06:41:53;;;;;;;15.43;4.15;;;;;;;8.82;55.11;102199.50;5031229;28;20025;-91
2021/04/03 06:44:20;;;;;;;21.80;5.25;;;;;;;9.29;53.78;102205.78;5031395;28;20021;-92
2021/04/03 06:46:47;;;;;;;19.85;4.68;;;;;;;9.04;54.10;102218.00;5031179;28;20159;-92
2021/04/03 06:49:13;;;;;;;19.58;4.30;;;;;;;9.54;53.21;102218.06;5031155;28;20553;-91
2021/04/03 06:51:40;;;;;;;19.65;4.15;;;;;;;9.43;52.94;102223.69;5034093;28;20013;-92
2021/04/03 06:54:07;;;;;;;28.98;4.72;;;;;;;9.39;52.20;102219.44;5034946;28;20025;-92
2021/04/03 06:56:34;;;;;;;23.75;4.47;;;;;;;9.63;52.45;102214.28;5034771;28;20029;-92
2021/04/03 06:59:12;;;;;;;18.80;3.92;;;;;;;9.86;51.96;102227.44;5035674;28;20115;-91
2021/04/03 07:01:53;;;;;;;29.65;4.80;;;;;;;9.73;52.39;102223.53;5035951;28;20041;-91
2021/04/03 07:04:43;;;;;;;19.42;4.00;;;;;;;9.72;51.88;102219.19;5034657;28;20034;-91
2021/04/03 07:07:10;;;;;;;15.70;3.83;;;;;;;9.69;51.81;102230.63;5034682;28;20124;-92
2021/04/03 07:09:37;;;;;;;20.05;3.67;;;;;;;9.64;51.81;102231.72;5034980;28;20029;-91
2021/04/03 07:12:04;;;;;;;18.23;4.65;;;;;;;9.44;52.52;102235.91;5038104;28;20041;-91
2021/04/03 07:14:33;;;;;;;21.13;4.72;;;;;;;9.85;51.28;102236.22;5048323;28;20033;-92
2021/04/03 07:16:59;;;;;;;28.92;4.65;;;;;;;10.00;51.20;102244.44;5044805;28;20029;-92
2021/04/03 07:19:27;;;;;;;13.13;3.40;;;;;;;10.00;50.64;102254.94;5042674;28;20521;-92
2021/04/03 07:21:53;;;;;;;15.93;3.53;;;;;;;10.01;50.71;102233.03;5043580;28;20029;-91
2021/04/03 07:24:19;;;;;;;19.98;4.10;;;;;;;9.56;51.14;102232.00;5044646;28;20586;-93
2021/04/03 07:26:47;;;;;;;16.20;3.72;;;;;;;9.87;51.14;102255.41;5037751;28;20021;-90
2021/04/03 07:29:39;;;;;;;25.20;5.85;;;;;;;9.47;51.81;102233.16;5034991;28;20025;-93
2021/04/03 07:32:05;;;;;;;24.45;3.80;;;;;;;9.66;51.41;102248.28;5007183;28;20053;-92
2021/04/03 07:34:40;;;;;;;17.95;3.60;;;;;;;9.48;51.54;102248.00;5035444;28;20116;-91
2021/04/03 07:37:10;;;;;;;18.75;4.15;;;;;;;9.36;51.60;102258.91;5029368;28;20026;-92
2021/04/03 07:39:38;;;;;;;26.45;4.32;;;;;;;9.47;50.93;102246.25;5030409;28;20072;-91
2021/04/03 07:42:05;;;;;;;18.92;4.43;;;;;;;9.81;50.27;102252.09;5030858;28;20080;-91
2021/04/03 07:44:35;;;;;;;15.38;4.03;;;;;;;9.74;50.61;102243.63;5033042;28;20025;-91
2021/04/03 07:47:20;;;;;;;14.65;3.38;;;;;;;10.18;49.71;102254.28;5031759;28;20029;-91
2021/04/03 07:49:47;;;;;;;18.15;3.85;;;;;;;10.30;49.95;102258.25;5017008;28;20018;-91
2021/04/03 07:52:12;;;;;;;22.98;5.60;;;;;;;10.42;49.02;102246.44;5013218;28;20056;-92
2021/04/03 07:54:38;;;;;;;22.95;3.63;;;;;;;10.42;49.33;102256.94;5023384;28;20476;-91
2021/04/03 07:57:06;;;;;;;15.93;4.07;;;;;;;10.55;49.02;102263.44;5033731;28;20060;-91
2021/04/03 07:59:44;;;;;;;19.63;3.72;;;;;;;10.54;49.75;102266.97;5034099;28;20144;-92
2021/04/03 08:02:17;;;;;;;21.65;3.75;;;;;;;10.25;49.44;102265.41;5033484;28;20087;-91
2021/04/03 08:04:43;;;;;;;11.65;3.22;;;;;;;10.37;48.89;102259.75;5033587;28;20033;-90
2021/04/03 08:07:08;;;;;;;23.48;3.75;;;;;;;10.38;48.92;102268.47;5033641;28;20100;-90
2021/04/03 08:09:35;;;;;;;22.92;3.83;;;;;;;10.68;48.14;102259.44;5026191;28;20029;-90
2021/04/03 08:12:01;;;;;;;27.42;5.20;;;;;;;10.73;47.76;102264.50;5032413;28;20147;-90
2021/04/03 08:14:28;;;;;;;16.63;3.55;;;;;;;10.74;48.47;102263.56;5037436;28;20029;-91
2021/04/03 08:16:55;;;;;;;16.20;4.18;;;;;;;11.04;47.84;102273.81;5040001;28;20431;-91
2021/04/03 08:19:25;;;;;;;14.65;3.28;;;;;;;10.80;47.52;102272.97;5032982;28;20025;-91
2021/04/03 08:21:50;;;;;;;16.15;3.15;;;;;;;10.91;47.37;102273.44;5027871;28;20121;-91
2021/04/03 08:24:19;;;;;;;18.80;3.90;;;;;;;11.06;47.05;102275.44;5032442;28;20063;-91
2021/04/03 08:26:45;;;;;;;13.65;3.38;;;;;;;11.00;47.32;102270.44;5032665;28;20575;-92
2021/04/03 08:29:23;;;;;;;17.80;3.25;;;;;;;11.20;47.79;102282.78;5037088;28;20100;-90
2021/04/03 08:31:51;;;;;;;13.68;3.83;;;;;;;11.11;48.11;102276.09;5030291;28;20038;-91
2021/04/03 08:34:17;;;;;;;18.85;4.05;;;;;;;10.92;47.38;102285.66;5041945;28;20017;-92
2021/04/03 08:36:43;;;;;;;20.83;3.80;;;;;;;11.07;47.19;102282.41;5045310;28;20498;-91
2021/04/03 08:39:10;;;;;;;13.90;3.10;;;;;;;10.74;47.28;102278.47;5036834;28;20010;-90
2021/04/03 08:41:38;;;;;;;20.15;5.03;;;;;;;11.15;47.18;102283.88;5022100;28;20049;-89
2021/04/03 08:44:29;;;;;;;25.42;5.07;;;;;;;11.36;47.25;102272.50;5033102;28;20029;-90
2021/04/03 08:46:59;;;;;;;15.80;3.53;;;;;;;11.60;46.01;102275.00;5038754;28;20387;-91
2021/04/03 08:49:28;;;;;;;19.60;4.32;;;;;;;11.62;45.72;102276.66;5040442;28;20032;-90
2021/04/03 08:51:54;;;;;;;16.98;3.55;;;;;;;11.54;45.55;102285.78;5037386;28;20052;-90
2021/04/03 08:54:19;;;;;;;16.30;3.45;;;;;;;11.11;47.03;102284.00;5039472;28;20072;-89
2021/04/03 08:56:45;;;;;;;18.50;3.45;;;;;;;11.55;46.73;102287.50;5030980;28;20652;-89
2021/04/03 08:59:25;;;;;;;20.42;4.10;;;;;;;11.22;47.08;102272.22;5031187;28;20026;-89
2021/04/03 09:01:53;;;;;;;18.45;4.55;;;;;;;11.63;45.43;102281.00;5027865;28;20025;-89
2021/04/03 09:04:20;;;;;;;25.13;3.47;;;;;;;11.68;45.52;102281.66;5031250;28;20029;-89
2021/04/03 09:06:55;;;;;;;21.25;3.85;;;;;;;12.00;46.05;102276.78;5032168;28;20099;-89
2021/04/03 09:09:22;;;;;;;24.52;3.60;;;;;;;11.34;46.48;102274.31;5032453;28;20052;-89
2021/04/03 09:12:08;;;;;;;25.67;5.10;;;;;;;11.84;45.86;102286.25;5027435;28;20031;-89
2021/04/03 09:14:35;;;;;;;21.00;4.43;;;;;;;11.95;45.25;102283.19;5018364;28;20026;-94
2021/04/03 09:17:05;;;;;;;14.18;4.28;;;;;;;11.90;44.67;102286.88;5036883;28;20052;-95
2021/04/03 09:19:35;;;;;;;20.67;3.65;;;;;;;12.01;44.27;102285.56;5042827;28;20040;-96
2021/04/03 09:22:02;;;;;;;24.65;3.95;;;;;;;11.84;44.53;102275.72;5136536;23;20042;-95
2021/04/03 09:24:42;;;;;;;23.83;4.00;;;;;;;11.80;44.45;102272.38;5054603;28;20098;-95
2021/04/03 09:27:15;;;;;;;26.45;4.68;;;;;;;12.14;44.04;102276.19;5031344;28;20032;-96
2021/04/03 09:29:43;;;;;;;13.32;3.33;;;;;;;12.07;44.02;102262.44;5061495;23;20052;-93
2021/04/03 09:32:14;;;;;;;16.83;3.75;;;;;;;12.25;43.84;102267.81;5093544;23;20056;-96
2021/04/03 09:34:40;;;;;;;22.27;3.75;;;;;;;12.38;44.17;102263.69;5030699;28;20026;-93
2021/04/03 09:37:13;;;;;;;17.00;3.55;;;;;;;12.69;43.34;102265.72;5023222;28;20510;-94
2021/04/03 09:39:57;;;;;;;18.27;3.75;;;;;;;12.59;42.74;102264.47;5019711;28;20032;-92
2021/04/03 09:42:27;;;;;;;19.95;4.15;;;;;;;12.51;43.24;102271.88;5025694;28;20078;-93
2021/04/03 09:44:54;;;;;;;20.10;3.10;;;;;;;12.12;44.78;102271.91;5033505;28;20472;-93
2021/04/03 09:47:21;;;;;;;17.00;3.97;;;;;;;12.30;43.78;102271.94;5025237;28;20022;-91
2021/04/03 09:49:47;;;;;;;23.42;4.45;;;;;;;12.75;42.68;102256.69;5025976;28;20479;-92
2021/04/03 09:52:13;;;;;;;15.02;3.88;;;;;;;13.45;42.15;102268.25;5024271;28;20033;-92
2021/04/03 09:54:40;;;;;;;17.30;3.70;;;;;;;13.20;41.83;102267.72;5027366;28;20029;-94
2021/04/03 09:57:06;;;;;;;22.05;4.35;;;;;;;13.20;42.00;102273.00;5017053;28;20030;-94
2021/04/03 09:59:32;;;;;;;14.57;4.00;;;;;;;14.25;40.43;102274.66;5029938;28;20175;-95
2021/04/03 10:01:59;;;;;;;14.38;3.75;;;;;;;14.56;39.80;102275.66;5027370;28;20017;-91
2021/04/03 10:04:25;;;;;;;20.13;4.38;;;;;;;14.18;39.45;102278.56;5031248;28;20029;-94
2021/04/03 10:06:51;;;;;;;14.50;3.38;;;;;;;13.94;39.03;102264.00;5021761;28;20096;-93
2021/04/03 10:09:16;;;;;;;14.20;2.58;;;;;;;15.94;36.50;102258.91;5029694;28;20514;-91
2021/04/03 10:11:42;;;;;;;12.52;3.05;;;;;;;16.87;35.36;102259.28;5032553;28;20034;-93
2021/04/03 10:14:07;;;;;;;15.80;3.33;;;;;;;16.63;35.10;102267.84;5030374;28;20129;-93
2021/04/03 10:16:32;;;;;;;16.98;3.22;;;;;;;16.81;34.29;102271.13;5029175;28;20030;-93
2021/04/03 10:18:58;;;;;;;13.80;4.10;;;;;;;17.34;33.99;102271.22;5029386;28;20029;-92
2021/04/03 10:21:24;;;;;;;20.30;4.30;;;;;;;17.54;33.68;102266.34;5031200;28;20033;-91
2021/04/03 10:23:51;;;;;;;16.50;3.45;;;;;;;17.68;32.64;102276.88;5027301;28;20152;-90
2021/04/03 10:26:18;;;;;;;17.60;3.20;;;;;;;16.72;33.56;102284.09;5032839;28;20026;-90
2021/04/03 10:28:43;;;;;;;14.43;3.80;;;;;;;16.75;33.14;102273.31;5032309;28;20029;-90
2021/04/03 10:31:09;;;;;;;11.00;3.00;;;;;;;16.42;34.01;102277.16;5023520;28;20049;-89
2021/04/03 10:33:36;;;;;;;12.43;3.28;;;;;;;15.59;35.15;102274.22;5028697;28;20416;-89
2021/04/03 10:36:04;;;;;;;14.82;3.50;;;;;;;15.66;35.99;102278.22;5034685;28;20395;-89
2021/04/03 10:38:30;;;;;;;13.30;3.40;;;;;;;15.23;36.02;102270.16;5034044;28;20021;-89
2021/04/03 10:40:55;;;;;;;12.75;3.38;;;;;;;16.02;34.92;102277.81;5034818;28;20035;-89
2021/04/03 10:43:20;;;;;;;13.57;3.00;;;;;;;16.45;34.60;102280.47;5034526;28;20026;-89
2021/04/03 10:45:46;;;;;;;17.38;3.47;;;;;;;17.10;33.68;102275.47;5032199;28;20021;-89
2021/04/03 10:48:11;;;;;;;15.43;3.22;;;;;;;17.92;31.89;102269.06;5032517;28;20738;-88
2021/04/03 10:50:37;;;;;;;16.92;3.60;;;;;;;18.15;30.81;102277.25;5030152;28;20034;-89
2021/04/03 10:53:02;;;;;;;13.32;3.85;;;;;;;18.15;32.87;102285.22;5024822;28;20069;-89
2021/04/03 10:55:31;;;;;;;15.82;4.03;;;;;;;19.09;31.09;102279.31;5016606;28;20046;-88
2021/04/03 10:57:56;;;;;;;20.25;3.50;;;;;;;19.27;29.98;102276.25;5019110;28;20279;-89
2021/04/03 11:00:22;;;;;;;18.75;3.63;;;;;;;17.64;32.60;102283.38;5030823;28;20113;-88
2021/04/03 11:02:47;;;;;;;16.73;4.05;;;;;;;18.07;33.72;102283.09;5033591;28;20030;-88
2021/04/03 11:05:13;;;;;;;11.15;3.20;;;;;;;18.70;30.92;102280.41;5034064;28;20499;-89
2021/04/03 11:07:38;;;;;;;14.15;4.07;;;;;;;17.74;32.08;102286.25;5031794;28;20543;-90
2021/04/03 11:10:04;;;;;;;15.50;3.80;;;;;;;17.31;32.87;102283.84;5034272;28;20034;-89
2021/04/03 11:12:29;;;;;;;18.02;4.25;;;;;;;17.59;34.35;102288.97;5025868;28;20026;-89
2021/04/03 11:14:55;;;;;;;16.90;3.50;;;;;;;17.55;33.58;102276.84;5029122;28;20375;-89
2021/04/03 11:17:20;;;;;;;15.98;4.43;;;;;;;16.84;33.65;102276.25;5028269;28;20034;-90
2021/04/03 11:19:45;;;;;;;11.00;3.65;;;;;;;16.53;35.30;102287.06;5024881;28;20025;-89
2021/04/03 11:22:11;;;;;;;17.23;4.32;;;;;;;16.62;35.26;102275.88;5016053;28;20484;-89
2021/04/03 11:24:36;;;;;;;17.38;3.47;;;;;;;16.70;34.90;102278.03;5031485;28;20100;-90
2021/04/03 11:27:02;;;;;;;18.20;3.65;;;;;;;17.01;34.80;102290.22;5044095;28;20029;-92
2021/04/03 11:29:27;;;;;;;18.13;4.05;;;;;;;16.74;33.64;102290.16;5025278;28;20384;-89